createdAt,value
2018-07-30T00:01:51.003Z,57.10
2018-07-30T00:04:18.409Z,58.70
2018-07-30T00:06:45.852Z,58.50
2018-07-30T00:09:13.284Z,59.30
2018-07-30T00:11:40.962Z,59.40
2018-07-30T00:14:08.899Z,58.20
2018-07-30T00:16:36.239Z,59.20
2018-07-30T00:19:03.655Z,59.10
2018-07-30T00:21:31.179Z,58.60
2018-07-30T00:23:58.994Z,58.50
2018-07-30T00:26:26.609Z,59.40
2018-07-30T00:28:54.073Z,59.00
2018-07-30T00:33:42.465Z,58.90
2018-07-30T00:36:09.919Z,59.40
2018-07-30T00:38:37.447Z,59.10
2018-07-30T00:41:04.926Z,60.90
2018-07-30T00:43:32.399Z,60.10
2018-07-30T00:45:59.821Z,60.50
2018-07-30T00:48:27.259Z,60.60
2018-07-30T00:50:54.714Z,59.60
2018-07-30T00:53:22.180Z,59.20
2018-07-30T00:55:49.666Z,60.60
2018-07-30T00:58:17.117Z,60.90
2018-07-30T01:00:44.563Z,61.70
2018-07-30T01:03:11.972Z,60.30
2018-07-30T01:05:39.479Z,59.80
2018-07-30T01:08:06.923Z,61.60
2018-07-30T01:13:01.804Z,60.30
2018-07-30T01:15:29.252Z,59.20
2018-07-30T01:17:56.831Z,59.80
2018-07-30T01:20:24.283Z,60.00
2018-07-30T01:22:51.743Z,60.30
2018-07-30T01:25:19.181Z,60.30
2018-07-30T01:27:46.655Z,61.10
2018-07-30T01:30:14.081Z,59.70
2018-07-30T01:32:41.590Z,60.60
2018-07-30T01:35:09.144Z,61.10
2018-07-30T01:37:36.571Z,60.40
2018-07-30T01:42:31.389Z,61.10
2018-07-30T01:44:58.800Z,63.20
2018-07-30T01:47:26.220Z,63.00
2018-07-30T01:49:53.691Z,62.70
2018-07-30T01:52:21.120Z,61.20
2018-07-30T01:54:48.531Z,62.20
2018-07-30T01:57:15.962Z,64.30
2018-07-30T02:02:10.898Z,63.40
2018-07-30T02:04:38.346Z,63.20
2018-07-30T02:09:33.224Z,65.60
2018-07-30T02:12:00.643Z,66.10
2018-07-30T02:14:28.076Z,64.40
2018-07-30T02:16:55.599Z,66.00
2018-07-30T02:19:23.071Z,64.40
2018-07-30T02:21:50.564Z,66.00
2018-07-30T02:24:18.021Z,66.50
2018-07-30T02:26:45.473Z,67.40
2018-07-30T02:29:12.912Z,68.70
2018-07-30T02:31:40.356Z,69.00
2018-07-30T02:34:08.248Z,69.30
2018-07-30T02:36:35.744Z,69.60
2018-07-30T02:39:05.504Z,70.20
2018-07-30T02:41:32.976Z,70.40
2018-07-30T02:44:00.417Z,71.00
2018-07-30T02:46:27.858Z,68.90
2018-07-30T02:48:55.320Z,69.10
2018-07-30T02:51:22.776Z,66.30
2018-07-30T02:53:50.211Z,68.30
2018-07-30T02:56:17.650Z,67.20
2018-07-30T02:58:45.108Z,66.60
2018-07-30T03:01:12.640Z,68.90
2018-07-30T03:06:07.543Z,64.70
2018-07-30T03:08:34.979Z,66.80
2018-07-30T03:11:02.403Z,67.60
2018-07-30T03:13:29.845Z,68.10
2018-07-30T03:15:57.269Z,67.10
2018-07-30T03:18:24.707Z,68.80
2018-07-30T03:20:52.169Z,68.30
2018-07-30T03:23:19.635Z,70.60
2018-07-30T03:25:47.182Z,69.70
2018-07-30T03:28:14.617Z,70.90
2018-07-30T03:30:42.071Z,70.70
2018-07-30T03:33:09.490Z,70.10
2018-07-30T03:35:36.951Z,69.30
2018-07-30T03:38:04.472Z,69.50
2018-07-30T03:40:31.898Z,66.50
2018-07-30T03:42:59.408Z,65.80
2018-07-30T03:45:26.831Z,67.50
2018-07-30T03:47:54.347Z,66.30
2018-07-30T03:50:21.844Z,67.30
2018-07-30T03:52:50.137Z,67.50
2018-07-30T03:55:17.580Z,67.50
2018-07-30T03:57:45.061Z,69.00
2018-07-30T04:00:13.123Z,70.90
2018-07-30T04:02:41.300Z,71.60
2018-07-30T04:05:08.747Z,70.60
2018-07-30T04:07:36.505Z,69.70
2018-07-30T04:10:04.031Z,69.70
2018-07-30T04:12:31.504Z,68.70
2018-07-30T04:14:58.959Z,68.60
2018-07-30T04:17:26.401Z,70.80
2018-07-30T04:19:53.900Z,71.50
2018-07-30T04:22:21.359Z,70.70
2018-07-30T04:24:48.784Z,70.90
2018-07-30T04:27:16.220Z,69.80
2018-07-30T04:29:43.682Z,69.10
2018-07-30T04:32:11.116Z,71.60
2018-07-30T04:34:38.593Z,69.40
2018-07-30T04:37:06.038Z,69.80
2018-07-30T04:39:33.538Z,69.00
2018-07-30T04:42:01.026Z,69.70
2018-07-30T04:44:28.473Z,70.20
2018-07-30T04:46:55.943Z,69.70
2018-07-30T04:49:23.414Z,66.40
2018-07-30T04:51:50.888Z,68.20
2018-07-30T04:54:18.387Z,67.20
2018-07-30T04:56:45.874Z,67.90
2018-07-30T04:59:13.309Z,68.70
2018-07-30T05:01:40.792Z,67.00
2018-07-30T05:04:08.317Z,65.80
2018-07-30T05:06:35.778Z,62.80
2018-07-30T05:09:04.987Z,65.70
2018-07-30T05:11:32.471Z,67.10
2018-07-30T05:13:59.970Z,61.90
2018-07-30T05:16:27.477Z,62.00
2018-07-30T05:18:54.985Z,64.50
2018-07-30T05:21:22.660Z,62.70
2018-07-30T05:23:50.139Z,64.10
2018-07-30T05:26:17.672Z,63.60
2018-07-30T05:28:45.330Z,63.70
2018-07-30T05:31:12.967Z,64.50
2018-07-30T05:33:40.568Z,63.10
2018-07-30T05:36:08.728Z,64.10
2018-07-30T05:38:36.253Z,65.00
2018-07-30T05:41:03.837Z,65.50
2018-07-30T05:45:58.792Z,64.60
2018-07-30T05:48:26.391Z,61.60
2018-07-30T05:50:53.911Z,60.80
2018-07-30T05:53:21.369Z,62.70
2018-07-30T05:55:48.875Z,60.80
2018-07-30T05:58:16.358Z,60.10
2018-07-30T06:00:43.827Z,60.10
2018-07-30T06:05:38.781Z,60.80
2018-07-30T06:08:06.246Z,62.20
2018-07-30T06:10:33.796Z,61.40
2018-07-30T06:13:01.218Z,63.00
2018-07-30T06:15:28.709Z,63.80
2018-07-30T06:20:23.882Z,64.30
2018-07-30T06:22:51.441Z,62.60
2018-07-30T06:25:18.992Z,63.10
2018-07-30T06:27:46.454Z,63.20
2018-07-30T06:30:13.974Z,61.70
2018-07-30T06:32:41.715Z,61.90
2018-07-30T06:35:09.180Z,59.80
2018-07-30T06:37:36.956Z,61.10
2018-07-30T06:40:04.616Z,59.70
2018-07-30T06:42:32.115Z,61.10
2018-07-30T06:44:59.580Z,61.10
2018-07-30T06:47:27.008Z,58.90
2018-07-30T06:49:54.455Z,58.80
2018-07-30T06:52:21.928Z,57.70
2018-07-30T06:54:49.379Z,57.20
2018-07-30T06:57:17.110Z,56.40
2018-07-30T06:59:44.544Z,57.30
2018-07-30T07:02:11.990Z,58.30
2018-07-30T07:04:39.405Z,59.30
2018-07-30T07:07:06.859Z,56.30
2018-07-30T07:09:34.316Z,55.70
2018-07-30T07:14:29.156Z,55.60
2018-07-30T07:16:56.742Z,55.20
2018-07-30T07:19:24.156Z,53.40
2018-07-30T07:24:19.080Z,49.50
2018-07-30T07:26:46.520Z,46.50
2018-07-30T07:29:14.007Z,46.00
2018-07-30T07:31:41.515Z,44.20
2018-07-30T07:34:08.980Z,43.40
2018-07-30T07:36:36.485Z,41.90
2018-07-30T07:41:33.344Z,38.70
2018-07-30T07:44:00.840Z,44.40
2018-07-30T07:46:28.329Z,45.00
2018-07-30T07:48:55.734Z,47.40
2018-07-30T07:51:23.253Z,49.00
2018-07-30T07:56:18.502Z,50.10
2018-07-30T07:58:45.972Z,50.20
2018-07-30T08:01:13.484Z,51.30
2018-07-30T08:03:40.951Z,51.90
2018-07-30T08:06:08.775Z,50.90
2018-07-30T08:08:36.232Z,50.50
2018-07-30T08:11:03.734Z,48.40
2018-07-30T08:13:31.158Z,46.90
2018-07-30T08:15:58.658Z,49.20
2018-07-30T08:18:26.192Z,50.90
2018-07-30T08:20:53.715Z,48.80
2018-07-30T08:23:21.227Z,47.70
2018-07-30T08:25:48.719Z,44.70
2018-07-30T08:28:16.181Z,42.50
2018-07-30T08:30:43.659Z,44.40
2018-07-30T08:33:11.189Z,43.50
2018-07-30T08:35:38.636Z,45.60
2018-07-30T08:38:06.153Z,41.30
2018-07-30T08:40:33.687Z,43.70
2018-07-30T08:45:28.686Z,45.00
2018-07-30T08:47:56.131Z,46.90
2018-07-30T08:55:18.503Z,42.90
2018-07-30T08:57:46.039Z,45.20
2018-07-30T09:00:13.505Z,47.00
2018-07-30T09:02:40.956Z,46.30
2018-07-30T09:05:09.187Z,48.00
2018-07-30T09:07:36.748Z,45.80
2018-07-30T09:10:04.643Z,46.20
2018-07-30T09:12:32.345Z,46.70
2018-07-30T09:14:59.797Z,47.80
2018-07-30T09:17:27.273Z,47.90
2018-07-30T09:19:54.779Z,47.80
2018-07-30T09:22:22.206Z,48.20
2018-07-30T09:24:49.636Z,48.60
2018-07-30T09:27:17.132Z,49.10
2018-07-30T09:29:44.638Z,49.30
2018-07-30T09:32:12.189Z,50.30
2018-07-30T09:34:39.688Z,50.90
2018-07-30T09:37:07.172Z,51.40
2018-07-30T09:39:34.711Z,51.10
2018-07-30T09:42:02.918Z,50.80
2018-07-30T09:44:30.424Z,50.00
2018-07-30T09:46:57.890Z,48.50
2018-07-30T09:49:25.423Z,48.50
2018-07-30T09:51:52.942Z,48.80
2018-07-30T09:54:20.410Z,48.50
2018-07-30T10:04:10.447Z,50.00
2018-07-30T10:06:37.929Z,49.40
2018-07-30T10:09:09.720Z,49.10
2018-07-30T10:11:37.562Z,49.10
2018-07-30T10:14:05.143Z,48.90
2018-07-30T10:16:32.609Z,49.40
2018-07-30T10:19:00.165Z,47.90
2018-07-30T10:21:27.752Z,48.40
2018-07-30T10:23:55.312Z,49.20
2018-07-30T10:26:22.798Z,49.70
2018-07-30T10:28:50.278Z,49.50
2018-07-30T10:31:17.788Z,49.40
2018-07-30T10:33:45.353Z,49.40
2018-07-30T10:36:12.840Z,48.60
2018-07-30T10:38:40.312Z,49.20
2018-07-30T10:43:35.271Z,49.10
2018-07-30T10:46:02.744Z,50.10
2018-07-30T10:50:57.678Z,49.10
2018-07-30T10:53:25.143Z,48.60
2018-07-30T10:55:52.636Z,49.10
2018-07-30T10:58:20.119Z,49.20
2018-07-30T11:00:47.563Z,49.20
2018-07-30T11:03:14.999Z,48.50
2018-07-30T11:05:42.431Z,48.60
2018-07-30T11:08:09.919Z,49.50
2018-07-30T11:10:37.378Z,49.50
2018-07-30T11:13:04.856Z,50.00
2018-07-30T11:15:32.382Z,50.10
2018-07-30T11:17:59.875Z,50.30
2018-07-30T11:20:27.347Z,49.60
2018-07-30T11:22:54.814Z,49.10
2018-07-30T11:25:22.351Z,49.70
2018-07-30T11:27:49.879Z,49.00
2018-07-30T11:30:17.361Z,48.00
2018-07-30T11:32:44.794Z,48.50
2018-07-30T11:35:12.362Z,48.60
2018-07-30T11:37:39.823Z,48.10
2018-07-30T11:40:07.326Z,48.60
2018-07-30T11:42:34.801Z,48.90
2018-07-30T11:45:02.372Z,49.20
2018-07-30T11:47:29.946Z,49.40
2018-07-30T11:49:57.402Z,49.20
2018-07-30T11:52:24.862Z,48.80
2018-07-30T11:54:52.415Z,48.80
2018-07-30T11:57:20.043Z,49.50
2018-07-30T11:59:47.516Z,49.30
2018-07-30T12:02:14.985Z,49.80
2018-07-30T12:04:42.585Z,49.70
2018-07-30T12:07:10.118Z,49.30
2018-07-30T12:09:37.609Z,49.20
2018-07-30T12:12:05.255Z,48.90
2018-07-30T12:14:32.735Z,49.40
2018-07-30T12:17:00.208Z,49.10
2018-07-30T12:19:27.680Z,49.80
2018-07-30T12:21:55.270Z,49.70
2018-07-30T12:24:22.737Z,49.70
2018-07-30T12:26:50.216Z,49.60
2018-07-30T12:29:17.721Z,48.90
2018-07-30T12:31:45.206Z,48.60
2018-07-30T12:34:12.687Z,49.00
2018-07-30T12:36:40.160Z,49.00
2018-07-30T12:39:09.036Z,49.20
2018-07-30T12:41:36.833Z,49.20
2018-07-30T12:44:04.403Z,48.90
2018-07-30T12:46:31.895Z,49.20
2018-07-30T12:48:59.401Z,49.50
2018-07-30T12:51:26.859Z,48.70
2018-07-30T12:53:54.937Z,48.30
2018-07-30T12:56:22.461Z,48.60
2018-07-30T12:58:50.044Z,48.60
2018-07-30T13:01:17.544Z,48.30
2018-07-30T13:03:45.132Z,48.10
2018-07-30T13:08:40.109Z,48.20
2018-07-30T13:11:07.820Z,49.00
2018-07-30T13:13:35.352Z,48.90
2018-07-30T13:16:02.839Z,49.00
2018-07-30T13:18:30.327Z,49.20
2018-07-30T13:20:57.922Z,49.20
2018-07-30T13:25:52.762Z,49.40
2018-07-30T13:30:47.752Z,48.80
2018-07-30T13:33:15.219Z,48.60
2018-07-30T13:35:42.697Z,48.10
2018-07-30T13:38:10.204Z,47.50
2018-07-30T13:40:37.681Z,47.00
2018-07-30T13:43:05.304Z,48.50
2018-07-30T13:45:32.890Z,48.20
2018-07-30T13:48:00.458Z,48.70
2018-07-30T13:50:28.412Z,48.50
2018-07-30T13:52:56.091Z,48.70
2018-07-30T13:55:23.568Z,48.30
2018-07-30T13:57:51.052Z,48.30
2018-07-30T14:00:18.572Z,48.60
2018-07-30T14:02:46.239Z,48.60
2018-07-30T14:05:13.683Z,48.60
2018-07-30T14:07:41.175Z,48.10
2018-07-30T14:10:09.109Z,48.20
2018-07-30T14:12:36.618Z,48.30
2018-07-30T14:15:04.935Z,48.00
2018-07-30T14:17:32.470Z,48.40
2018-07-30T14:20:00.052Z,48.60
2018-07-30T14:22:27.552Z,48.80
2018-07-30T14:24:55.018Z,48.90
2018-07-30T14:27:22.636Z,49.40
2018-07-30T14:29:50.174Z,49.50
2018-07-30T14:32:17.756Z,49.70
2018-07-30T14:37:12.827Z,52.40
2018-07-30T14:39:40.371Z,53.40
2018-07-30T14:42:07.993Z,52.40
2018-07-30T14:47:03.113Z,53.70
2018-07-30T14:51:58.291Z,54.60
2018-07-30T14:54:25.858Z,54.90
2018-07-30T14:56:54.243Z,55.10
2018-07-30T14:59:21.951Z,55.00
2018-07-30T15:01:49.468Z,54.20
2018-07-30T15:06:44.515Z,52.40
2018-07-30T15:09:13.295Z,53.20
2018-07-30T15:11:40.841Z,52.40
2018-07-30T15:14:08.374Z,52.40
2018-07-30T15:16:36.546Z,52.40
2018-07-30T15:19:04.594Z,52.00
2018-07-30T15:21:32.164Z,51.40
2018-07-30T15:26:27.280Z,52.80
2018-07-30T15:28:54.866Z,52.90
2018-07-30T15:31:22.404Z,51.60
2018-07-30T15:33:49.905Z,51.00
2018-07-30T15:36:17.523Z,50.20
2018-07-30T15:38:44.997Z,50.60
2018-07-30T15:41:12.517Z,51.20
2018-07-30T15:43:40.031Z,50.70
2018-07-30T15:48:35.048Z,51.40
2018-07-30T15:51:02.646Z,51.90
2018-07-30T15:53:30.237Z,52.00
2018-07-30T15:55:57.790Z,52.10
2018-07-30T15:58:25.295Z,52.20
2018-07-30T16:03:25.004Z,52.00
2018-07-30T16:05:52.871Z,52.00
2018-07-30T16:08:20.310Z,52.00
2018-07-30T16:10:47.804Z,52.10
2018-07-30T16:13:15.321Z,52.20
2018-07-30T16:15:42.892Z,52.50
2018-07-30T16:18:10.442Z,52.30
2018-07-30T16:20:37.979Z,52.20
2018-07-30T16:23:05.650Z,51.40
2018-07-30T16:25:33.385Z,50.60
2018-07-30T16:28:00.938Z,49.40
2018-07-30T16:30:28.512Z,49.20
2018-07-30T16:32:56.097Z,50.00
2018-07-30T16:35:23.740Z,51.00
2018-07-30T16:37:51.365Z,52.10
2018-07-30T16:40:19.072Z,52.10
2018-07-30T16:47:42.081Z,51.50
2018-07-30T16:50:09.786Z,50.70
2018-07-30T16:52:37.391Z,50.80
2018-07-30T16:57:38.651Z,50.50
2018-07-30T17:00:08.532Z,50.60
2018-07-30T17:02:36.100Z,51.10
2018-07-30T17:05:04.177Z,51.50
2018-07-30T17:07:31.704Z,51.60
2018-07-30T17:09:59.233Z,51.70
2018-07-30T17:14:54.295Z,51.80
2018-07-30T17:17:22.102Z,52.10
2018-07-30T17:19:49.728Z,52.00
2018-07-30T17:22:17.268Z,52.00
2018-07-30T17:24:44.830Z,52.00
2018-07-30T17:27:12.387Z,55.60
2018-07-30T17:29:40.108Z,59.20
2018-07-30T17:32:07.725Z,59.20
2018-07-30T17:34:35.439Z,59.60
2018-07-30T17:37:03.576Z,59.90
2018-07-30T17:39:32.470Z,59.20
2018-07-30T17:42:00.027Z,57.30
2018-07-30T17:44:27.849Z,57.70
2018-07-30T17:46:55.420Z,57.60
2018-07-30T17:49:23.281Z,57.90
2018-07-30T17:51:50.880Z,59.40
2018-07-30T17:56:46.009Z,59.00
2018-07-30T17:59:13.649Z,59.60
2018-07-30T18:01:41.199Z,61.10
2018-07-30T18:04:08.839Z,62.70
2018-07-30T18:09:06.007Z,63.40
2018-07-30T18:11:33.516Z,63.00
2018-07-30T18:14:01.089Z,63.40
2018-07-30T18:16:28.690Z,62.90
2018-07-30T18:18:56.199Z,61.30
2018-07-30T18:21:23.753Z,62.80
2018-07-30T18:23:51.247Z,63.10
2018-07-30T18:26:18.804Z,63.30
2018-07-30T18:28:46.295Z,61.80
2018-07-30T18:31:13.832Z,64.70
2018-07-30T18:33:41.451Z,62.90
2018-07-30T18:36:09.068Z,62.20
2018-07-30T18:38:36.704Z,62.70
2018-07-30T18:41:04.393Z,64.30
2018-07-30T18:43:31.900Z,64.10
2018-07-30T18:45:59.801Z,62.80
2018-07-30T18:48:27.405Z,63.70
2018-07-30T18:50:54.972Z,63.80
2018-07-30T18:53:22.551Z,62.70
2018-07-30T18:55:50.099Z,68.10
2018-07-30T18:58:17.626Z,71.70
2018-07-30T19:00:45.148Z,70.20
2018-07-30T19:03:12.758Z,71.60
2018-07-30T19:05:40.444Z,75.00
2018-07-30T19:08:08.070Z,76.00
2018-07-30T19:13:03.231Z,78.50
2018-07-30T19:15:31.169Z,77.30
2018-07-30T19:17:58.889Z,79.80
2018-07-30T19:20:26.487Z,83.10
2018-07-30T19:25:22.147Z,83.50
2018-07-30T19:27:50.087Z,83.50
2018-07-30T19:30:17.767Z,85.00
2018-07-30T19:32:45.550Z,83.70
2018-07-30T19:37:40.999Z,67.70
2018-07-30T19:40:08.849Z,69.80
2018-07-30T19:42:36.456Z,75.10
2018-07-30T19:45:04.879Z,74.10
2018-07-30T19:47:32.463Z,70.30
2018-07-30T19:50:00.309Z,77.40
2018-07-30T19:52:27.887Z,79.30
2018-07-30T19:54:56.030Z,81.90
2018-07-30T19:57:23.971Z,82.70
2018-07-30T19:59:51.655Z,86.20
2018-07-30T20:02:19.444Z,88.80
2018-07-30T20:04:47.324Z,84.90
2018-07-30T20:07:15.266Z,88.40
2018-07-30T20:09:43.274Z,90.20
2018-07-30T20:12:11.247Z,90.90
2018-07-30T20:14:38.919Z,90.40
2018-07-30T20:17:06.554Z,91.20
2018-07-30T20:19:34.170Z,91.10
2018-07-30T20:24:30.035Z,92.40
2018-07-30T20:26:57.827Z,92.40
2018-07-30T20:29:25.777Z,93.20
2018-07-30T20:31:53.831Z,93.10
2018-07-30T20:36:49.280Z,92.90
2018-07-30T20:39:16.989Z,92.90
2018-07-30T20:41:44.648Z,93.00
2018-07-30T20:44:12.366Z,91.90
2018-07-30T20:46:39.986Z,90.70
2018-07-30T20:49:07.653Z,91.70
2018-07-30T20:51:35.346Z,93.00
2018-07-30T20:54:02.904Z,93.30
2018-07-30T20:56:30.443Z,93.80
2018-07-30T20:58:58.104Z,94.30
2018-07-30T21:01:25.679Z,95.20
2018-07-30T21:03:53.342Z,95.20
2018-07-30T21:06:20.911Z,95.80
2018-07-30T21:08:48.493Z,96.50
2018-07-30T21:11:16.105Z,97.10
2018-07-30T21:13:43.647Z,97.10
2018-07-30T21:16:11.241Z,96.90
2018-07-30T21:18:38.780Z,96.70
2018-07-30T21:21:06.374Z,96.80
2018-07-30T21:23:33.999Z,96.70
2018-07-30T21:26:01.658Z,96.90
2018-07-30T21:28:29.301Z,96.90
2018-07-30T21:30:56.890Z,96.70
2018-07-30T21:33:24.612Z,96.10
2018-07-30T21:35:52.220Z,96.30
2018-07-30T21:38:20.236Z,96.40
2018-07-30T21:40:47.870Z,96.30
2018-07-30T21:43:15.441Z,96.50
2018-07-30T21:45:43.047Z,96.90
2018-07-30T21:48:10.778Z,96.90
2018-07-30T21:50:38.404Z,96.90
2018-07-30T21:53:06.421Z,97.40
2018-07-30T21:55:34.251Z,97.70
2018-07-30T21:58:01.938Z,97.70
2018-07-30T22:00:29.740Z,97.80
2018-07-30T22:02:57.786Z,97.90
2018-07-30T22:05:25.467Z,97.90
2018-07-30T22:07:53.085Z,97.90
2018-07-30T22:10:23.699Z,97.70
2018-07-30T22:15:19.785Z,97.70
2018-07-30T22:17:47.437Z,97.80
2018-07-30T22:22:42.589Z,98.10
2018-07-30T22:25:10.148Z,98.60
2018-07-30T22:27:37.711Z,98.40
2018-07-30T22:30:07.020Z,97.80
2018-07-30T22:32:34.650Z,98.20
2018-07-30T22:35:02.507Z,98.00
2018-07-30T22:37:30.080Z,97.00
2018-07-30T22:39:57.624Z,97.30
2018-07-30T22:42:25.251Z,97.70
2018-07-30T22:44:52.796Z,97.90
2018-07-30T22:49:51.222Z,97.90
2018-07-30T22:52:18.796Z,98.10
2018-07-30T22:54:46.428Z,98.10
2018-07-30T22:57:14.253Z,98.00
2018-07-30T22:59:41.831Z,97.90
2018-07-30T23:02:09.437Z,98.30
2018-07-30T23:04:37.004Z,98.30
2018-07-30T23:07:04.552Z,98.20
2018-07-30T23:09:32.185Z,98.10
2018-07-30T23:11:59.727Z,98.40
2018-07-30T23:14:27.276Z,98.50
2018-07-30T23:16:54.968Z,98.70
2018-07-30T23:19:22.509Z,98.90
2018-07-30T23:21:50.130Z,98.80
2018-07-30T23:24:17.692Z,98.30
2018-07-30T23:26:45.376Z,98.20
2018-07-30T23:29:13.103Z,98.80
2018-07-30T23:31:40.649Z,98.90
2018-07-30T23:34:08.187Z,98.60
2018-07-30T23:36:35.747Z,98.10
2018-07-30T23:39:04.834Z,98.30
2018-07-30T23:41:32.347Z,97.30
2018-07-30T23:43:59.901Z,97.60
2018-07-30T23:46:27.399Z,97.10
2018-07-30T23:48:54.906Z,96.80
2018-07-30T23:51:22.479Z,97.10
2018-07-30T23:53:50.054Z,97.70
2018-07-30T23:56:17.637Z,97.60
2018-07-30T23:58:45.208Z,97.50
